AQQ10 IFIS: Internet Flight Information System
logo dgac
Martes 06 de Diciembre del 2022

Metar

Buscar por aerodromo o helipuerto
Ingrese nombre de aeródromo, localidad o designador OACI:


METAR del 06-12-2022 a las 00:00 UTC
Para mayor información visite www.meteochile.cl
METAR SCGZ 062000Z 28010KT 9999 FEW043 SCT066 06/M01 Q0991
Viento: dirección 280 grados, velocidad 10 nudos
Visibilidad: 10 km o más
Nubes: Escasa nubosidad a 4300 pies sobre el nivel del aeródromo
Nubes: Nubosidad parcial a 6600 pies sobre el nivel del aeródromo
Temperatura: 6 °C
Rocío: -1 °C
Humedad_relativa: 61%
Presión: 991 hPa
METAR del 06-12-2022 a las 07:00 UTC
Para mayor información visite www.meteochile.cl
METAR SCPQ 060700Z AUTO 00000KT 9999 OVC031 10/09 Q1015
Visibilidad: 10 km o más
Nubes: Cubierto a 3100 pies sobre el nivel del aeródromo
Temperatura: 10 °C
Rocío: 9 °C
Humedad_relativa: 94%
Presión: 1015 hPa
METAR del 06-12-2022 a las 07:00 UTC
Para mayor información visite www.meteochile.cl
METAR SCFA 060700Z 31003KT CAVOK 15/11 Q1014 NOSIG
Viento: dirección 310 grados, velocidad 3 nudos
Visibilidad: 10 km o más,
    sin nubes bajo los 5.000 pies o bajo del MSA (Mínimo de Seguridad del Aeródromo),
    sin cumulonimbus, y sin fenómenos de tiempo significativo en el aeródromo o alrededores
Temperatura: 15 °C
Rocío: 11 °C
Humedad_relativa: 77%
Presión: 1014 hPa
No se esperan cambios significativos en las próximas 2 horas
METAR del 06-12-2022 a las 07:00 UTC
Para mayor información visite www.meteochile.cl
METAR SCNT 060700Z 30006KT 9999 BKN030 02/00 Q1000
Viento: dirección 300 grados, velocidad 6 nudos
Visibilidad: 10 km o más
Nubes: Nublado a 3000 pies sobre el nivel del aeródromo
Temperatura: 2 °C
Rocío: 0 °C
Humedad_relativa: 87%
Presión: 1000 hPa
METAR del 06-12-2022 a las 07:00 UTC
Para mayor información visite www.meteochile.cl
METAR SCIP 060700Z 27003KT 9999 FEW025 SCT190 22/18 Q1017 NOSIG
Viento: dirección 270 grados, velocidad 3 nudos
Visibilidad: 10 km o más
Nubes: Escasa nubosidad a 2500 pies sobre el nivel del aeródromo
Nubes: Nubosidad parcial a 19000 pies sobre el nivel del aeródromo
Temperatura: 22 °C
Rocío: 18 °C
Humedad_relativa: 78%
Presión: 1017 hPa
No se esperan cambios significativos en las próximas 2 horas
METAR del 06-12-2022 a las 07:00 UTC
Para mayor información visite www.meteochile.cl
METAR SCIE 060700Z 00000KT CAVOK 14/12 Q1015
Visibilidad: 10 km o más,
    sin nubes bajo los 5.000 pies o bajo del MSA (Mínimo de Seguridad del Aeródromo),
    sin cumulonimbus, y sin fenómenos de tiempo significativo en el aeródromo o alrededores
Temperatura: 14 °C
Rocío: 12 °C
Humedad_relativa: 88%
Presión: 1015 hPa
METAR del 06-12-2022 a las 07:00 UTC
Para mayor información visite www.meteochile.cl
METAR SCSE 060700Z 20003KT 9999 FEW011 12/12 Q1013
Viento: dirección 200 grados, velocidad 3 nudos
Visibilidad: 10 km o más
Nubes: Escasa nubosidad a 1100 pies sobre el nivel del aeródromo
Temperatura: 12 °C
Rocío: 12 °C
Humedad_relativa: 100%
Presión: 1013 hPa
METAR del 06-12-2022 a las 07:00 UTC
Para mayor información visite www.meteochile.cl
METAR SCVM 060700Z 16005KT CAVOK 10/09 Q1013
Viento: dirección 160 grados, velocidad 5 nudos
Visibilidad: 10 km o más,
    sin nubes bajo los 5.000 pies o bajo del MSA (Mínimo de Seguridad del Aeródromo),
    sin cumulonimbus, y sin fenómenos de tiempo significativo en el aeródromo o alrededores
Temperatura: 10 °C
Rocío: 9 °C
Humedad_relativa: 94%
Presión: 1013 hPa
METAR del 06-12-2022 a las 07:00 UTC
Para mayor información visite www.meteochile.cl
METAR SCAR 060700Z 22004KT 9999 OVC031 19/14 Q1014
Viento: dirección 220 grados, velocidad 4 nudos
Visibilidad: 10 km o más
Nubes: Cubierto a 3100 pies sobre el nivel del aeródromo
Temperatura: 19 °C
Rocío: 14 °C
Humedad_relativa: 73%
Presión: 1014 hPa
METAR del 06-12-2022 a las 07:00 UTC
Para mayor información visite www.meteochile.cl
METAR SCDA 060700Z 12003KT CAVOK 18/12 Q1014
Viento: dirección 120 grados, velocidad 3 nudos
Visibilidad: 10 km o más,
    sin nubes bajo los 5.000 pies o bajo del MSA (Mínimo de Seguridad del Aeródromo),
    sin cumulonimbus, y sin fenómenos de tiempo significativo en el aeródromo o alrededores
Temperatura: 18 °C
Rocío: 12 °C
Humedad_relativa: 68%
Presión: 1014 hPa